Time,TemperatureF,DewpointF,PressureIn,WindDirection,WindDirectionDegrees,WindSpeedMPH,WindSpeedGustMPH,Humidity,HourlyPrecipIn,Conditions,Clouds,dailyrainin,SoftwareType,DateUTC
2013-02-05 00:05:00,15.4,9.2,28.64,WSW,255,3.1,3.1,76,0.00,,---,0.00,VWS V14.01,2013-02-05 06:05:00,
2013-02-05 00:15:00,15.8,9.6,28.61,ESE,115,3.1,3.1,76,0.00,,---,0.00,VWS V14.01,2013-02-05 06:15:00,
2013-02-05 00:25:00,16.2,9.9,28.61,SW,220,5.8,5.8,76,0.00,,---,0.00,VWS V14.01,2013-02-05 06:25:00,
2013-02-05 00:30:00,16.5,10.6,28.61,South,185,0.0,0.0,77,0.00,,---,0.00,VWS V14.01,2013-02-05 06:30:00,
2013-02-05 00:35:00,16.7,10.8,28.61,South,181,6.3,6.3,77,0.00,,---,0.00,VWS V14.01,2013-02-05 06:35:00,
2013-02-05 00:40:00,16.9,10.9,28.61,SSW,210,3.1,3.1,77,0.00,,---,0.00,VWS V14.01,2013-02-05 06:40:00,
2013-02-05 00:50:00,17.4,11.8,28.61,SW,215,2.2,2.2,78,0.00,,---,0.00,VWS V14.01,2013-02-05 06:50:00,
2013-02-05 00:55:00,17.8,11.8,28.61,South,183,4.0,4.0,77,0.00,,---,0.00,VWS V14.01,2013-02-05 06:55:00,
2013-02-05 01:05:00,18.1,12.4,28.61,West,261,7.2,7.2,78,0.00,,---,0.00,VWS V14.01,2013-02-05 07:05:00,
2013-02-05 01:15:00,18.3,12.3,28.59,WSW,246,2.7,2.7,77,0.00,,---,0.00,VWS V14.01,2013-02-05 07:15:00,
2013-02-05 01:20:00,18.5,12.5,28.59,SW,226,2.2,2.2,77,0.00,,---,0.00,VWS V14.01,2013-02-05 07:20:00,
2013-02-05 01:30:00,18.9,12.9,28.59,South,178,3.6,3.6,77,0.00,,---,0.00,VWS V14.01,2013-02-05 07:30:00,
2013-02-05 01:40:00,19.2,13.5,28.59,West,264,4.9,4.9,78,0.00,,---,0.00,VWS V14.01,2013-02-05 07:40:00,
2013-02-05 01:50:00,19.6,13.6,28.59,SSW,199,3.6,3.6,77,0.00,,---,0.00,VWS V14.01,2013-02-05 07:50:00,
2013-02-05 02:00:00,19.8,13.7,28.59,WSW,241,3.6,3.6,77,0.00,,---,0.00,VWS V14.01,2013-02-05 08:00:00,
2013-02-05 02:05:00,19.8,13.7,28.59,WSW,242,4.9,4.9,77,0.00,,---,0.00,VWS V14.01,2013-02-05 08:05:00,
2013-02-05 02:10:00,19.8,13.7,28.59,SSW,210,2.7,2.7,77,0.00,,---,0.00,VWS V14.01,2013-02-05 08:10:00,
2013-02-05 02:15:00,19.8,14.0,28.59,SW,230,0.0,0.0,78,0.00,,---,0.00,VWS V14.01,2013-02-05 08:15:00,
2013-02-05 02:25:00,19.9,14.2,28.59,SSW,197,3.1,3.1,78,0.00,,---,0.00,VWS V14.01,2013-02-05 08:25:00,
2013-02-05 02:35:00,19.8,14.0,28.59,SSW,198,2.7,2.7,78,0.00,,---,0.00,VWS V14.01,2013-02-05 08:35:00,
2013-02-05 02:40:00,19.9,14.2,28.59,West,270,2.2,2.2,78,0.00,,---,0.00,VWS V14.01,2013-02-05 08:40:00,
2013-02-05 02:45:00,19.9,14.2,28.59,WSW,256,2.2,2.2,78,0.00,,---,0.00,VWS V14.01,2013-02-05 08:45:00,
2013-02-05 02:50:00,20.1,14.4,28.59,SW,225,3.1,3.1,78,0.00,,---,0.00,VWS V14.01,2013-02-05 08:50:00,
2013-02-05 02:55:00,20.3,14.8,28.59,South,182,3.1,3.1,79,0.00,,---,0.00,VWS V14.01,2013-02-05 08:55:00,
2013-02-05 03:00:00,20.7,15.2,28.59,WSW,245,3.1,3.1,79,0.00,,---,0.00,VWS V14.01,2013-02-05 09:00:00,
2013-02-05 03:05:00,21.0,15.8,28.59,WSW,242,2.2,2.2,80,0.00,,---,0.00,VWS V14.01,2013-02-05 09:05:00,
2013-02-05 03:15:00,21.2,16.0,28.56,SW,235,4.9,4.9,80,0.00,,---,0.00,VWS V14.01,2013-02-05 09:15:00,
2013-02-05 03:25:00,21.6,16.4,28.56,SW,230,2.7,2.7,80,0.00,,---,0.00,VWS V14.01,2013-02-05 09:25:00,
2013-02-05 03:30:00,21.6,16.4,28.56,SSW,204,3.1,3.1,80,0.00,,---,0.00,VWS V14.01,2013-02-05 09:30:00,
2013-02-05 03:35:00,21.6,16.1,28.56,SW,236,0.0,0.0,79,0.00,,---,0.00,VWS V14.01,2013-02-05 09:35:00,
2013-02-05 03:45:00,21.7,16.2,28.56,WSW,247,5.4,5.4,79,0.00,,---,0.00,VWS V14.01,2013-02-05 09:45:00,
2013-02-05 03:50:00,21.9,16.4,28.56,West,271,6.3,6.3,79,0.00,,---,0.00,VWS V14.01,2013-02-05 09:50:00,
2013-02-05 04:00:00,22.1,16.9,28.56,SW,217,2.2,2.2,80,0.00,,---,0.00,VWS V14.01,2013-02-05 10:00:00,
2013-02-05 04:10:00,22.6,17.4,28.56,WSW,240,3.1,3.1,80,0.00,,---,0.00,VWS V14.01,2013-02-05 10:10:00,
2013-02-05 04:20:00,23.0,17.5,28.56,WSW,252,6.3,6.3,79,0.00,,---,0.00,VWS V14.01,2013-02-05 10:20:00,
2013-02-05 04:25:00,23.2,17.6,28.56,WSW,245,4.9,4.9,79,0.00,,---,0.00,VWS V14.01,2013-02-05 10:25:00,
2013-02-05 04:30:00,23.4,17.8,28.56,West,266,3.6,3.6,79,0.00,,---,0.00,VWS V14.01,2013-02-05 10:30:00,
2013-02-05 04:35:00,23.5,18.0,28.56,WSW,251,3.6,3.6,79,0.00,,---,0.00,VWS V14.01,2013-02-05 10:35:00,
2013-02-05 04:45:00,23.7,18.5,28.56,WSW,239,3.1,3.1,80,0.00,,---,0.00,VWS V14.01,2013-02-05 10:45:00,
2013-02-05 04:55:00,24.1,19.1,28.56,WSW,240,2.2,2.2,81,0.00,,---,0.00,VWS V14.01,2013-02-05 10:55:00,
2013-02-05 05:00:00,24.4,19.5,28.56,West,259,2.2,2.2,81,0.00,,---,0.00,VWS V14.01,2013-02-05 11:00:00,
2013-02-05 05:05:00,24.4,19.7,28.56,WSW,246,4.0,4.0,82,0.00,,---,0.00,VWS V14.01,2013-02-05 11:05:00,
2013-02-05 05:10:00,24.4,19.7,28.56,West,267,0.0,0.0,82,0.00,,---,0.00,VWS V14.01,2013-02-05 11:10:00,
2013-02-05 05:20:00,25.0,20.3,28.56,West,261,4.0,4.0,82,0.00,,---,0.00,VWS V14.01,2013-02-05 11:20:00,
2013-02-05 05:25:00,25.2,20.7,28.56,West,280,0.0,0.0,83,0.00,,---,0.00,VWS V14.01,2013-02-05 11:25:00,
2013-02-05 05:35:00,25.3,21.2,28.56,West,266,2.7,2.7,84,0.00,,---,0.00,VWS V14.01,2013-02-05 11:35:00,
2013-02-05 05:45:00,25.3,20.9,28.56,West,280,0.0,0.0,83,0.00,,---,0.00,VWS V14.01,2013-02-05 11:45:00,
2013-02-05 05:55:00,25.3,20.9,28.56,West,274,0.0,0.0,83,0.00,,---,0.00,VWS V14.01,2013-02-05 11:55:00,
2013-02-05 06:00:00,25.3,21.2,28.56,WNW,290,3.1,3.1,84,0.00,,---,0.00,VWS V14.01,2013-02-05 12:00:00,
2013-02-05 06:10:00,25.7,21.5,28.56,West,275,3.1,3.1,84,0.00,,---,0.00,VWS V14.01,2013-02-05 12:10:00,
2013-02-05 06:20:00,25.9,21.7,28.59,WSW,242,4.0,4.0,84,0.00,,---,0.00,VWS V14.01,2013-02-05 12:20:00,
2013-02-05 06:30:00,26.1,21.9,28.59,West,273,2.7,2.7,84,0.00,,---,0.00,VWS V14.01,2013-02-05 12:30:00,
2013-02-05 06:35:00,26.1,21.9,28.59,West,272,2.7,2.7,84,0.00,,---,0.00,VWS V14.01,2013-02-05 12:35:00,
2013-02-05 06:40:00,26.1,21.9,28.59,WSW,253,3.1,3.1,84,0.00,,---,0.00,VWS V14.01,2013-02-05 12:40:00,
2013-02-05 06:45:00,26.1,21.9,28.59,West,272,4.9,4.9,84,0.00,,---,0.00,VWS V14.01,2013-02-05 12:45:00,
2013-02-05 06:50:00,26.2,22.1,28.59,West,279,2.2,2.2,84,0.00,,---,0.00,VWS V14.01,2013-02-05 12:50:00,
2013-02-05 06:55:00,26.2,22.1,28.59,WSW,257,4.0,4.0,84,0.00,,---,0.00,VWS V14.01,2013-02-05 12:55:00,
2013-02-05 07:05:00,26.4,22.2,28.59,West,269,4.0,4.0,84,0.00,,---,0.00,VWS V14.01,2013-02-05 13:05:00,
2013-02-05 07:10:00,26.8,22.6,28.59,WNW,287,4.0,4.0,84,0.00,,---,0.00,VWS V14.01,2013-02-05 13:10:00,
2013-02-05 07:20:00,27.0,22.8,28.59,NW,320,5.4,5.4,84,0.00,,---,0.00,VWS V14.01,2013-02-05 13:20:00,
2013-02-05 07:25:00,27.1,22.7,28.59,NW,305,3.1,3.1,83,0.00,,---,0.00,VWS V14.01,2013-02-05 13:25:00,
2013-02-05 07:30:00,27.1,22.7,28.59,WNW,283,3.1,3.1,83,0.00,,---,0.00,VWS V14.01,2013-02-05 13:30:00,
2013-02-05 07:40:00,27.3,22.6,28.59,NW,305,2.7,2.7,82,0.00,,---,0.00,VWS V14.01,2013-02-05 13:40:00,
2013-02-05 07:45:00,27.3,22.3,28.61,West,270,2.2,2.2,81,0.00,,---,0.00,VWS V14.01,2013-02-05 13:45:00,
2013-02-05 07:50:00,27.3,22.3,28.61,West,264,4.0,4.0,81,0.00,,---,0.00,VWS V14.01,2013-02-05 13:50:00,
2013-02-05 07:55:00,27.5,22.5,28.61,WNW,299,3.6,3.6,81,0.00,,---,0.00,VWS V14.01,2013-02-05 13:55:00,
2013-02-05 08:05:00,27.7,22.6,28.61,WNW,296,2.7,2.7,81,0.00,,---,0.00,VWS V14.01,2013-02-05 14:05:00,
2013-02-05 08:10:00,27.5,22.1,28.61,West,281,2.2,2.2,80,0.00,,---,0.00,VWS V14.01,2013-02-05 14:10:00,
2013-02-05 08:20:00,27.7,22.3,28.61,NW,304,2.2,2.2,80,0.00,,---,0.00,VWS V14.01,2013-02-05 14:20:00,
2013-02-05 08:25:00,27.7,22.0,28.61,NNW,331,4.0,4.0,79,0.00,,---,0.00,VWS V14.01,2013-02-05 14:25:00,
2013-02-05 08:30:00,27.7,22.0,28.64,WNW,288,2.7,2.7,79,0.00,,---,0.00,VWS V14.01,2013-02-05 14:30:00,
2013-02-05 08:40:00,27.9,21.9,28.64,NNW,337,2.2,2.2,78,0.00,,---,0.00,VWS V14.01,2013-02-05 14:40:00,
2013-02-05 08:50:00,27.9,21.3,28.64,West,281,4.0,4.0,76,0.00,,---,0.00,VWS V14.01,2013-02-05 14:50:00,
2013-02-05 08:55:00,27.9,20.7,28.64,NNW,346,3.1,3.1,74,0.00,,---,0.00,VWS V14.01,2013-02-05 14:55:00,
2013-02-05 09:00:00,27.9,20.3,28.67,NNW,333,5.4,5.4,73,0.00,,---,0.00,VWS V14.01,2013-02-05 15:00:00,
2013-02-05 09:05:00,27.9,20.0,28.67,WNW,300,5.8,5.8,72,0.00,,---,0.00,VWS V14.01,2013-02-05 15:05:00,
2013-02-05 09:15:00,28.0,19.9,28.67,NNW,327,0.0,0.0,71,0.00,,---,0.00,VWS V14.01,2013-02-05 15:15:00,
2013-02-05 09:20:00,28.0,19.5,28.67,NW,307,2.7,2.7,70,0.00,,---,0.00,VWS V14.01,2013-02-05 15:20:00,
2013-02-05 09:30:00,28.2,19.7,28.67,NW,315,3.1,3.1,70,0.00,,---,0.00,VWS V14.01,2013-02-05 15:30:00,
2013-02-05 09:40:00,28.4,19.9,28.67,NNW,335,3.1,3.1,70,0.00,,---,0.00,VWS V14.01,2013-02-05 15:40:00,
2013-02-05 09:45:00,28.4,19.9,28.67,WNW,293,2.7,2.7,70,0.00,,---,0.00,VWS V14.01,2013-02-05 15:45:00,
2013-02-05 09:50:00,28.4,19.9,28.67,WNW,286,5.8,5.8,70,0.00,,---,0.00,VWS V14.01,2013-02-05 15:50:00,
2013-02-05 10:00:00,28.2,19.4,28.70,NE,34,3.6,3.6,69,0.00,,---,0.00,VWS V14.01,2013-02-05 16:00:00,
2013-02-05 10:05:00,28.2,19.4,28.70,NW,316,2.2,2.2,69,0.00,,---,0.00,VWS V14.01,2013-02-05 16:05:00,
2013-02-05 10:15:00,28.2,19.4,28.70,WNW,291,3.6,3.6,69,0.00,,---,0.00,VWS V14.01,2013-02-05 16:15:00,
2013-02-05 10:25:00,28.0,18.9,28.70,North,357,3.1,3.1,68,0.00,,---,0.00,VWS V14.01,2013-02-05 16:25:00,
2013-02-05 10:30:00,27.9,18.3,28.70,NW,316,3.6,3.6,67,0.00,,---,0.00,VWS V14.01,2013-02-05 16:30:00,
2013-02-05 10:40:00,28.2,19.0,28.70,WNW,293,0.0,0.0,68,0.00,,---,0.00,VWS V14.01,2013-02-05 16:40:00,
2013-02-05 10:50:00,28.4,18.9,28.73,West,269,2.7,2.7,67,0.00,,---,0.00,VWS V14.01,2013-02-05 16:50:00,
2013-02-05 11:00:00,28.2,16.9,28.73,West,280,3.1,3.1,62,0.00,,---,0.00,VWS V14.01,2013-02-05 17:00:00,
2013-02-05 11:05:00,28.2,16.1,28.73,NNW,341,4.0,4.0,60,0.00,,---,0.00,VWS V14.01,2013-02-05 17:05:00,
2013-02-05 11:15:00,28.0,15.2,28.76,NNW,348,0.0,0.0,58,0.00,,---,0.00,VWS V14.01,2013-02-05 17:15:00,
2013-02-05 11:25:00,27.9,13.8,28.76,NNE,15,5.8,5.8,55,0.00,,---,0.00,VWS V14.01,2013-02-05 17:25:00,
2013-02-05 11:35:00,28.8,13.8,28.76,NNW,344,4.0,4.0,53,0.00,,---,0.00,VWS V14.01,2013-02-05 17:35:00,
2013-02-05 11:45:00,30.2,14.3,28.76,WNW,288,3.1,3.1,51,0.00,,---,0.00,VWS V14.01,2013-02-05 17:45:00,
2013-02-05 11:50:00,30.2,13.8,28.76,NNW,346,3.1,3.1,50,0.00,,---,0.00,VWS V14.01,2013-02-05 17:50:00,
2013-02-05 12:00:00,30.4,13.5,28.76,West,268,3.6,3.6,49,0.00,,---,0.00,VWS V14.01,2013-02-05 18:00:00,
2013-02-05 12:05:00,29.8,12.6,28.76,NNW,345,2.7,2.7,48,0.00,,---,0.00,VWS V14.01,2013-02-05 18:05:00,
2013-02-05 12:10:00,29.7,12.9,28.76,NNW,335,6.3,6.3,49,0.00,,---,0.00,VWS V14.01,2013-02-05 18:10:00,
2013-02-05 12:20:00,30.0,13.6,28.79,WNW,302,5.8,5.8,50,0.00,,---,0.00,VWS V14.01,2013-02-05 18:20:00,
2013-02-05 12:25:00,31.5,14.1,28.79,WNW,285,5.4,5.4,48,0.00,,---,0.00,VWS V14.01,2013-02-05 18:25:00,
2013-02-05 12:35:00,32.9,13.9,28.79,NNW,339,3.6,3.6,45,0.00,,---,0.00,VWS V14.01,2013-02-05 18:35:00,
2013-02-05 12:45:00,32.5,13.1,28.79,NNE,12,6.3,6.3,44,0.00,,---,0.00,VWS V14.01,2013-02-05 18:45:00,
2013-02-05 12:50:00,32.5,13.1,28.79,West,273,4.0,4.0,44,0.00,,---,0.00,VWS V14.01,2013-02-05 18:50:00,
2013-02-05 13:00:00,33.3,13.7,28.79,West,271,0.0,0.0,44,0.00,,---,0.00,VWS V14.01,2013-02-05 19:00:00,
2013-02-05 13:10:00,33.8,13.1,28.79,NNW,337,5.8,5.8,42,0.00,,---,0.00,VWS V14.01,2013-02-05 19:10:00,
2013-02-05 13:15:00,33.6,13.0,28.79,North,353,2.2,2.2,42,0.00,,---,0.00,VWS V14.01,2013-02-05 19:15:00,
2013-02-05 13:20:00,34.0,13.3,28.79,NE,43,0.0,0.0,42,0.00,,---,0.00,VWS V14.01,2013-02-05 19:20:00,
2013-02-05 13:30:00,35.1,14.3,28.79,WNW,290,0.0,0.0,42,0.00,,---,0.00,VWS V14.01,2013-02-05 19:30:00,
2013-02-05 13:35:00,35.1,13.8,28.79,NNW,344,4.0,4.0,41,0.00,,---,0.00,VWS V14.01,2013-02-05 19:35:00,
2013-02-05 13:45:00,35.6,14.2,28.82,NW,323,4.0,4.0,41,0.00,,---,0.00,VWS V14.01,2013-02-05 19:45:00,
2013-02-05 13:55:00,35.6,13.7,28.82,West,276,3.1,3.1,40,0.00,,---,0.00,VWS V14.01,2013-02-05 19:55:00,
2013-02-05 14:00:00,35.8,13.8,28.82,NW,305,3.6,3.6,40,0.00,,---,0.00,VWS V14.01,2013-02-05 20:00:00,
2013-02-05 14:10:00,34.5,13.3,28.82,WNW,294,2.7,2.7,41,0.00,,---,0.00,VWS V14.01,2013-02-05 20:10:00,
2013-02-05 14:20:00,34.0,12.8,28.82,WNW,298,6.3,6.3,41,0.00,,---,0.00,VWS V14.01,2013-02-05 20:20:00,
2013-02-05 14:30:00,33.8,12.6,28.82,NNW,342,3.1,3.1,41,0.00,,---,0.00,VWS V14.01,2013-02-05 20:30:00,
2013-02-05 14:35:00,33.8,12.6,28.82,NNW,340,4.0,4.0,41,0.00,,---,0.00,VWS V14.01,2013-02-05 20:35:00,
2013-02-05 14:45:00,33.3,12.1,28.85,NW,311,3.6,3.6,41,0.00,,---,0.00,VWS V14.01,2013-02-05 20:45:00,
2013-02-05 14:55:00,33.1,12.0,28.85,West,259,0.0,0.0,41,0.00,,---,0.00,VWS V14.01,2013-02-05 20:55:00,
2013-02-05 15:00:00,33.1,12.0,28.85,NW,318,4.0,4.0,41,0.00,,---,0.00,VWS V14.01,2013-02-05 21:00:00,
2013-02-05 15:05:00,33.1,12.0,28.85,NW,315,2.2,2.2,41,0.00,,---,0.00,VWS V14.01,2013-02-05 21:05:00,
2013-02-05 15:15:00,33.1,12.0,28.85,NW,320,8.7,8.7,41,0.00,,---,0.00,VWS V14.01,2013-02-05 21:15:00,
2013-02-05 15:20:00,32.7,11.6,28.85,NW,319,5.4,5.4,41,0.00,,---,0.00,VWS V14.01,2013-02-05 21:20:00,
2013-02-05 15:30:00,31.6,10.1,28.85,WNW,303,3.1,3.1,40,0.00,,---,0.00,VWS V14.01,2013-02-05 21:30:00,
2013-02-05 15:40:00,31.6,10.6,28.85,NNW,333,0.0,0.0,41,0.00,,---,0.00,VWS V14.01,2013-02-05 21:40:00,
2013-02-05 15:50:00,31.5,10.5,28.85,NNW,329,2.7,2.7,41,0.00,,---,0.00,VWS V14.01,2013-02-05 21:50:00,
2013-02-05 15:55:00,31.3,10.3,28.85,WNW,295,7.6,7.6,41,0.00,,---,0.00,VWS V14.01,2013-02-05 21:55:00,
2013-02-05 16:05:00,30.4,9.5,28.85,NW,311,3.6,3.6,41,0.00,,---,0.00,VWS V14.01,2013-02-05 22:05:00,
2013-02-05 16:15:00,30.0,9.2,28.85,NW,325,0.0,0.0,41,0.00,,---,0.00,VWS V14.01,2013-02-05 22:15:00,
2013-02-05 16:20:00,29.7,8.9,28.85,WNW,288,4.0,4.0,41,0.00,,---,0.00,VWS V14.01,2013-02-05 22:20:00,
2013-02-05 16:30:00,28.6,7.9,28.88,West,266,5.8,5.8,41,0.00,,---,0.00,VWS V14.01,2013-02-05 22:30:00,
2013-02-05 16:35:00,28.4,7.7,28.88,WNW,300,4.9,4.9,41,0.00,,---,0.00,VWS V14.01,2013-02-05 22:35:00,
2013-02-05 16:45:00,27.5,7.4,28.88,WNW,296,4.9,4.9,42,0.00,,---,0.00,VWS V14.01,2013-02-05 22:45:00,
2013-02-05 16:50:00,27.1,6.6,28.88,NW,314,2.7,2.7,41,0.00,,---,0.00,VWS V14.01,2013-02-05 22:50:00,
2013-02-05 17:00:00,26.8,6.8,28.88,NW,312,4.0,4.0,42,0.00,,---,0.00,VWS V14.01,2013-02-05 23:00:00,
2013-02-05 17:05:00,26.4,6.4,28.88,NW,321,3.6,3.6,42,0.00,,---,0.00,VWS V14.01,2013-02-05 23:05:00,
2013-02-05 17:15:00,26.1,6.1,28.88,NW,325,2.2,2.2,42,0.00,,---,0.00,VWS V14.01,2013-02-05 23:15:00,
2013-02-05 17:25:00,25.7,5.8,28.88,NNW,331,2.7,2.7,42,0.00,,---,0.00,VWS V14.01,2013-02-05 23:25:00,
2013-02-05 17:35:00,25.3,5.5,28.88,NW,322,0.0,0.0,42,0.00,,---,0.00,VWS V14.01,2013-02-05 23:35:00,
2013-02-05 17:40:00,25.0,5.1,28.88,NW,323,0.0,0.0,42,0.00,,---,0.00,VWS V14.01,2013-02-05 23:40:00,
2013-02-05 17:50:00,24.3,5.0,28.91,NW,323,0.0,0.0,43,0.00,,---,0.00,VWS V14.01,2013-02-05 23:50:00,
2013-02-05 17:55:00,24.1,4.8,28.91,NNW,336,0.0,0.0,43,0.00,,---,0.00,VWS V14.01,2013-02-05 23:55:00,
2013-02-05 18:00:00,23.9,4.7,28.91,NNW,336,0.0,0.0,43,0.00,,---,0.00,VWS V14.01,2013-02-06 00:00:00,
2013-02-05 18:10:00,23.4,4.2,28.91,NNW,336,0.0,0.0,43,0.00,,---,0.00,VWS V14.01,2013-02-06 00:10:00,
2013-02-05 18:15:00,23.4,4.2,28.91,NNW,336,0.0,0.0,43,0.00,,---,0.00,VWS V14.01,2013-02-06 00:15:00,
2013-02-05 18:25:00,23.0,3.8,28.91,NNW,336,0.0,0.0,43,0.00,,---,0.00,VWS V14.01,2013-02-06 00:25:00,
2013-02-05 18:30:00,22.8,3.7,28.91,NNW,336,0.0,0.0,43,0.00,,---,0.00,VWS V14.01,2013-02-06 00:30:00,
2013-02-05 18:35:00,22.6,4.0,28.91,NNW,336,0.0,0.0,44,0.00,,---,0.00,VWS V14.01,2013-02-06 00:35:00,
2013-02-05 18:45:00,22.3,3.7,28.94,NNW,336,0.0,0.0,44,0.00,,---,0.00,VWS V14.01,2013-02-06 00:45:00,
2013-02-05 18:50:00,21.9,3.4,28.94,NNW,336,0.0,0.0,44,0.00,,---,0.00,VWS V14.01,2013-02-06 00:50:00,
2013-02-05 19:00:00,21.6,3.0,28.94,NNW,336,0.0,0.0,44,0.00,,---,0.00,VWS V14.01,2013-02-06 01:00:00,
2013-02-05 19:10:00,21.6,3.0,28.94,NNW,336,0.0,0.0,44,0.00,,---,0.00,VWS V14.01,2013-02-06 01:10:00,
2013-02-05 19:20:00,21.2,2.7,28.94,NNW,336,0.0,0.0,44,0.00,,---,0.00,VWS V14.01,2013-02-06 01:20:00,
2013-02-05 19:25:00,21.0,2.5,28.94,NNW,336,0.0,0.0,44,0.00,,---,0.00,VWS V14.01,2013-02-06 01:25:00,
2013-02-05 19:35:00,20.5,2.0,28.94,NNW,336,0.0,0.0,44,0.00,,---,0.00,VWS V14.01,2013-02-06 01:35:00,
2013-02-05 19:45:00,20.1,2.2,28.94,NNW,336,0.0,0.0,45,0.00,,---,0.00,VWS V14.01,2013-02-06 01:45:00,
2013-02-05 19:55:00,19.9,2.0,28.94,NNW,336,0.0,0.0,45,0.00,,---,0.00,VWS V14.01,2013-02-06 01:55:00,
2013-02-05 20:00:00,19.9,2.0,28.94,NNW,336,0.0,0.0,45,0.00,,---,0.00,VWS V14.01,2013-02-06 02:00:00,
2013-02-05 20:10:00,19.6,2.2,28.94,NNW,336,0.0,0.0,46,0.00,,---,0.00,VWS V14.01,2013-02-06 02:10:00,
2013-02-05 20:20:00,18.9,1.5,28.94,NNW,336,0.0,0.0,46,0.00,,---,0.00,VWS V14.01,2013-02-06 02:20:00,
2013-02-05 20:30:00,18.5,1.2,28.94,NNW,336,0.0,0.0,46,0.00,,---,0.00,VWS V14.01,2013-02-06 02:30:00,
2013-02-05 20:35:00,18.5,1.2,28.94,NNW,336,0.0,0.0,46,0.00,,---,0.00,VWS V14.01,2013-02-06 02:35:00,
2013-02-05 20:45:00,17.1,-0.1,28.94,NNW,336,0.0,0.0,46,0.00,,---,0.00,VWS V14.01,2013-02-06 02:45:00,
2013-02-05 20:55:00,16.5,-0.6,28.94,NNW,336,0.0,0.0,46,0.00,,---,0.00,VWS V14.01,2013-02-06 02:55:00,
2013-02-05 21:05:00,15.8,-0.9,28.97,NNW,336,0.0,0.0,47,0.00,,---,0.00,VWS V14.01,2013-02-06 03:05:00,
2013-02-05 21:10:00,15.6,-0.1,28.97,NNW,336,0.0,0.0,49,0.00,,---,0.00,VWS V14.01,2013-02-06 03:10:00,
2013-02-05 21:15:00,15.4,0.1,28.97,NNW,336,0.0,0.0,50,0.00,,---,0.00,VWS V14.01,2013-02-06 03:15:00,
2013-02-05 21:20:00,15.4,0.6,28.97,NNW,336,0.0,0.0,51,0.00,,---,0.00,VWS V14.01,2013-02-06 03:20:00,
2013-02-05 21:30:00,15.3,0.8,28.97,NNW,336,0.0,0.0,52,0.00,,---,0.00,VWS V14.01,2013-02-06 03:30:00,
2013-02-05 21:40:00,15.1,1.0,28.97,NNW,336,0.0,0.0,53,0.00,,---,0.00,VWS V14.01,2013-02-06 03:40:00,
2013-02-05 21:45:00,15.1,1.0,28.97,NNW,336,0.0,0.0,53,0.00,,---,0.00,VWS V14.01,2013-02-06 03:45:00,
2013-02-05 21:55:00,14.9,0.9,28.97,NNW,336,0.0,0.0,53,0.00,,---,0.00,VWS V14.01,2013-02-06 03:55:00,
2013-02-05 22:00:00,14.9,0.9,28.97,NNW,336,0.0,0.0,53,0.00,,---,0.00,VWS V14.01,2013-02-06 04:00:00,
2013-02-05 22:05:00,14.7,0.7,28.97,NNW,336,0.0,0.0,53,0.00,,---,0.00,VWS V14.01,2013-02-06 04:05:00,
2013-02-05 22:10:00,14.5,0.5,28.97,NNW,336,0.0,0.0,53,0.00,,---,0.00,VWS V14.01,2013-02-06 04:10:00,
2013-02-05 22:20:00,14.4,0.0,28.97,NNW,336,0.0,0.0,52,0.00,,---,0.00,VWS V14.01,2013-02-06 04:20:00,
2013-02-05 22:25:00,14.4,0.0,28.97,NNW,336,0.0,0.0,52,0.00,,---,0.00,VWS V14.01,2013-02-06 04:25:00,
2013-02-05 22:30:00,14.2,-0.2,28.94,NNW,336,0.0,0.0,52,0.00,,---,0.00,VWS V14.01,2013-02-06 04:30:00,
2013-02-05 22:40:00,14.0,0.0,28.94,NNW,336,0.0,0.0,53,0.00,,---,0.00,VWS V14.01,2013-02-06 04:40:00,
2013-02-05 22:50:00,13.6,-0.3,28.97,NNW,336,0.0,0.0,53,0.00,,---,0.00,VWS V14.01,2013-02-06 04:50:00,
2013-02-05 22:55:00,12.9,-1.0,28.97,NNW,336,0.0,0.0,53,0.00,,---,0.00,VWS V14.01,2013-02-06 04:55:00,
2013-02-05 23:00:00,12.7,-1.1,28.97,NNW,336,0.0,0.0,53,0.00,,---,0.00,VWS V14.01,2013-02-06 05:00:00,
2013-02-05 23:05:00,12.7,-1.1,28.97,NNW,336,0.0,0.0,53,0.00,,---,0.00,VWS V14.01,2013-02-06 05:05:00,
2013-02-05 23:10:00,12.4,-1.5,28.97,NNW,336,0.0,0.0,53,0.00,,---,0.00,VWS V14.01,2013-02-06 05:10:00,
2013-02-05 23:15:00,12.0,-1.8,28.97,NNW,336,0.0,0.0,53,0.00,,---,0.00,VWS V14.01,2013-02-06 05:15:00,
2013-02-05 23:25:00,11.8,-2.0,28.97,NNW,336,0.0,0.0,53,0.00,,---,0.00,VWS V14.01,2013-02-06 05:25:00,
2013-02-05 23:30:00,11.3,-2.5,28.97,NNW,336,0.0,0.0,53,0.00,,---,0.00,VWS V14.01,2013-02-06 05:30:00,
2013-02-05 23:35:00,10.9,-2.8,28.97,NNW,336,0.0,0.0,53,0.00,,---,0.00,VWS V14.01,2013-02-06 05:35:00,
2013-02-05 23:40:00,10.9,-2.8,28.97,NNW,336,0.0,0.0,53,0.00,,---,0.00,VWS V14.01,2013-02-06 05:40:00,
2013-02-05 23:50:00,10.8,-3.0,28.97,NNW,336,0.0,0.0,53,0.00,,---,0.00,VWS V14.01,2013-02-06 05:50:00,
2013-02-05 23:55:00,10.4,-3.3,28.97,NNW,336,0.0,0.0,53,0.00,,---,0.00,VWS V14.01,2013-02-06 05:55:00,